This is the latest recevied weather packets stored in our database for station/object WBGG. If no packets are shown the sender has not sent any weather packets the latest 10 day(s).
| Time | Temp. | Humidity | Pressure | Rain* | Wind** | Luminosity | Snow |
|---|---|---|---|---|---|---|---|
| 1778071190 | 27.78° C | 83% | 1008 hPa | - | - | - | - |
| 1778069416 | 27.78° C | 83% | 1008 hPa | - | - | - | - |
| 1778067590 | 27.78° C | 83% | 1007 hPa | - | - | - | - |
| 1778065809 | 28.89° C | 79% | 1007 hPa | - | - | - | - |
| 1778063992 | 28.89° C | 79% | 1006 hPa | - | - | - | - |
| 1778062208 | 28.89° C | 79% | 1006 hPa | - | - | - | - |
| 1778060391 | 28.89° C | 79% | 1006 hPa | - | - | - | - |
| 1778058608 | 30° C | 74% | 1005 hPa | - | - | - | - |
| 1778056790 | 30.56° C | 70% | 1006 hPa | - | - | - | - |
| 1778055009 | 31.67° C | 66% | 1005 hPa | - | - | - | - |
| 1778053190 | 32.78° C | 66% | 1006 hPa | - | - | - | - |
| 1778051990 | 32.78° C | 66% | 1005 hPa | - | - | - | - |
| 1778051416 | 32.78° C | 66% | 1006 hPa | - | - | - | - |
| 1778049592 | 31.67° C | 66% | 1006 hPa | - | - | - | - |
| 1778047808 | 30.56° C | 74% | 1007 hPa | - | - | - | - |
| 1778045990 | 31.67° C | 70% | 1007 hPa | - | - | - | - |
| 1778044207 | 32.78° C | 62% | 1007 hPa | - | - | - | - |
| 1778042390 | 32.78° C | 66% | 1008 hPa | - | - | - | - |
| 1778040609 | 31.67° C | 66% | 1008 hPa | - | - | - | - |
| 1778038790 | 31.67° C | 66% | 1009 hPa | - | - | - | - |
| 1778037014 | 30.56° C | 70% | 1009 hPa | - | - | - | - |
| 1778035191 | 30.56° C | 74% | 1009 hPa | - | - | - | - |
| 1778033407 | 30° C | 74% | 1010 hPa | - | - | - | - |
| 1778031589 | 28.89° C | 79% | 1010 hPa | - | - | - | - |
| 1778029808 | 27.78° C | 83% | 1010 hPa | - | - | - | - |
* Rain since midnight (hover to see other rain measurements)
** Current wind speed in m/s (hover to see current wind gust speed)